Time;durP1;ratioP1;P1;durP2;ratioP2;P2;SDS_P1;SDS_P2;PMS_P1;PMS_P2;Temp;Humidity;BMP_temperature;BMP_pressure;BME280_temperature;BME280_humidity;BME280_pressure;Samples;Min_cycle;Max_cycle;Signal;HPM_P1;HPM_P2
2022/09/13 00:00:52;;;;;;;1.48;1.38;;;21.60;65.70;;;;;;5037739;28;20218;-70
2022/09/13 00:03:19;;;;;;;1.50;1.40;;;21.60;65.70;;;;;;5021346;28;20175;-70
2022/09/13 00:05:46;;;;;;;1.42;1.33;;;21.60;65.70;;;;;;5020217;28;20191;-70
2022/09/13 00:08:13;;;;;;;1.30;1.20;;;21.60;65.70;;;;;;5021089;28;20574;-70
2022/09/13 00:10:41;;;;;;;1.60;1.50;;;21.60;65.70;;;;;;5021626;28;20233;-70
2022/09/13 00:13:09;;;;;;;1.40;1.30;;;21.70;65.80;;;;;;5037276;28;20195;-70
2022/09/13 00:15:36;;;;;;;1.27;1.27;;;21.70;65.80;;;;;;5021487;28;20195;-71
2022/09/13 00:18:02;;;;;;;1.40;1.30;;;21.60;65.70;;;;;;5021258;28;20191;-70
2022/09/13 00:20:29;;;;;;;1.73;1.63;;;21.60;65.70;;;;;;5037235;28;20285;-70
2022/09/13 00:22:54;;;;;;;1.40;1.30;;;21.60;65.80;;;;;;5021157;28;20214;-70
2022/09/13 00:25:20;;;;;;;1.90;1.80;;;21.60;65.70;;;;;;5021208;28;20179;-70
2022/09/13 00:27:46;;;;;;;1.38;1.27;;;21.60;65.80;;;;;;5020933;28;20290;-70
2022/09/13 00:30:13;;;;;;;1.42;1.33;;;21.60;65.80;;;;;;5040790;28;20206;-70
2022/09/13 00:32:38;;;;;;;1.67;1.58;;;21.60;65.80;;;;;;5040762;28;20207;-70
2022/09/13 00:35:06;;;;;;;1.60;1.50;;;21.60;65.70;;;;;;5041184;28;20188;-71
2022/09/13 00:37:33;;;;;;;1.52;1.42;;;21.60;65.70;;;;;;5024138;28;20191;-70
2022/09/13 00:40:03;;;;;;;1.60;1.50;;;21.60;65.70;;;;;;5024571;28;20241;-70
2022/09/13 00:42:34;;;;;;;1.23;1.20;;;21.60;65.70;;;;;;5024817;28;20816;-70
2022/09/13 00:45:05;;;;;;;1.42;1.35;;;21.60;65.70;;;;;;5040914;28;20194;-70
2022/09/13 00:48:00;;;;;;;1.35;1.30;;;21.60;65.60;;;;;;5040956;28;20194;-70
2022/09/13 00:50:32;;;;;;;1.60;1.50;;;21.60;65.70;;;;;;5023188;28;20600;-70
2022/09/13 00:53:16;;;;;;;1.52;1.40;;;21.60;65.70;;;;;;5040322;28;20194;-70
2022/09/13 00:56:06;;;;;;;1.35;1.25;;;21.60;65.70;;;;;;5040352;28;20187;-70
2022/09/13 00:59:00;;;;;;;1.50;1.40;;;21.60;65.70;;;;;;5024071;28;20187;-70
2022/09/13 01:01:35;;;;;;;1.50;1.40;;;21.60;65.70;;;;;;5041555;28;20223;-70
2022/09/13 01:04:02;;;;;;;1.58;1.48;;;21.50;65.60;;;;;;5023582;28;20193;-70
2022/09/13 01:06:33;;;;;;;1.70;1.50;;;21.60;65.80;;;;;;5023647;28;20215;-70
2022/09/13 01:09:03;;;;;;;1.90;1.23;;;21.60;66.50;;;;;;5023359;28;20183;-70
2022/09/13 01:11:44;;;;;;;1.23;1.23;;;21.60;65.70;;;;;;5024451;28;20211;-70
2022/09/13 01:14:11;;;;;;;1.27;1.27;;;21.60;65.70;;;;;;5024556;28;20191;-71
2022/09/13 01:16:37;;;;;;;1.45;1.35;;;21.50;65.60;;;;;;5024486;28;20187;-70
2022/09/13 01:19:03;;;;;;;1.50;1.40;;;21.50;65.60;;;;;;5023830;28;20286;-70
2022/09/13 01:22:25;;;;;;;1.50;1.40;;;21.50;65.60;;;;;;5023613;28;20231;-70
2022/09/13 01:25:21;;;;;;;1.30;1.20;;;21.50;65.60;;;;;;5039404;28;20255;-70
2022/09/13 01:28:17;;;;;;;1.33;1.30;;;21.60;65.70;;;;;;5039629;28;20205;-70
2022/09/13 01:31:05;;;;;;;1.40;1.30;;;21.50;65.60;;;;;;5040183;28;20674;-70
2022/09/13 01:33:59;;;;;;;1.40;1.30;;;21.60;65.80;;;;;;5040209;28;20175;-71
2022/09/13 01:36:51;;;;;;;1.30;1.20;;;21.60;65.70;;;;;;5034929;28;20197;-70
2022/09/13 01:39:26;;;;;;;1.50;1.40;;;21.50;65.60;;;;;;5039763;28;20214;-71
2022/09/13 01:42:39;;;;;;;1.90;1.67;;;21.50;65.60;;;;;;5040192;28;20206;-70
2022/09/13 01:45:43;;;;;;;1.75;1.48;;;21.50;65.60;;;;;;5006414;28;20188;-70
2022/09/13 01:48:23;;;;;;;1.85;1.40;;;21.50;65.50;;;;;;5021811;28;20179;-70
2022/09/13 01:51:02;;;;;;;1.80;1.70;;;21.50;65.60;;;;;;5020590;28;20223;-70
2022/09/13 01:53:54;;;;;;;2.20;2.00;;;21.50;65.70;;;;;;5039599;28;20233;-70
2022/09/13 01:56:32;;;;;;;2.22;1.85;;;21.50;65.60;;;;;;5023292;28;20183;-71
2022/09/13 01:59:36;;;;;;;2.17;1.80;;;21.50;65.60;;;;;;5022949;28;20187;-70
2022/09/13 02:02:09;;;;;;;2.10;1.60;;;21.50;65.60;;;;;;5039808;28;20222;-70
2022/09/13 02:04:52;;;;;;;1.77;1.67;;;21.50;65.60;;;;;;5027083;28;20279;-71
2022/09/13 02:07:26;;;;;;;2.80;2.10;;;21.50;65.50;;;;;;5033486;28;20266;-70
2022/09/13 02:10:01;;;;;;;1.70;1.60;;;21.50;65.60;;;;;;5023255;28;20609;-70
2022/09/13 02:12:32;;;;;;;1.88;1.77;;;21.50;65.50;;;;;;5022637;28;20191;-70
2022/09/13 02:15:13;;;;;;;2.38;1.98;;;21.50;65.60;;;;;;5038853;28;20227;-70
2022/09/13 02:17:53;;;;;;;2.03;1.83;;;21.50;65.60;;;;;;5022925;28;20187;-70
2022/09/13 02:20:28;;;;;;;1.98;1.80;;;21.50;66.30;;;;;;5021402;28;20221;-71
2022/09/13 02:23:07;;;;;;;1.83;1.73;;;21.50;65.50;;;;;;5038780;28;20182;-70
2022/09/13 02:25:37;;;;;;;2.10;2.00;;;21.50;65.50;;;;;;5038996;28;20175;-71
2022/09/13 02:28:10;;;;;;;2.25;1.70;;;21.50;65.50;;;;;;5039008;28;20195;-70
2022/09/13 02:30:42;;;;;;;1.77;1.50;;;21.50;65.60;;;;;;5039005;28;20203;-70
2022/09/13 02:33:54;;;;;;;2.20;1.88;;;21.50;65.60;;;;;;5022417;28;20187;-70
2022/09/13 02:36:30;;;;;;;1.80;1.60;;;21.50;65.50;;;;;;5010325;28;20227;-71
2022/09/13 02:39:04;;;;;;;1.95;1.70;;;21.50;65.50;;;;;;5020874;28;20291;-71
2022/09/13 02:41:42;;;;;;;1.95;1.85;;;21.50;65.50;;;;;;5038787;28;20229;-71
2022/09/13 02:44:34;;;;;;;2.13;1.80;;;21.50;65.50;;;;;;5019318;28;20211;-70
2022/09/13 02:47:51;;;;;;;1.95;1.83;;;21.50;65.50;;;;;;5002940;28;20255;-70
2022/09/13 02:50:46;;;;;;;2.53;2.33;;;21.50;65.50;;;;;;5000963;28;20591;-70
2022/09/13 02:53:36;;;;;;;2.67;2.00;;;21.50;65.50;;;;;;5002374;28;20218;-70
2022/09/13 02:56:27;;;;;;;1.70;1.60;;;21.50;65.50;;;;;;5001722;28;20254;-70
2022/09/13 02:59:08;;;;;;;2.20;2.00;;;21.40;65.40;;;;;;5001493;28;20238;-71
2022/09/13 03:01:38;;;;;;;2.30;2.10;;;21.40;65.40;;;;;;5002577;28;20687;-71
2022/09/13 03:04:04;;;;;;;1.70;1.60;;;21.50;65.50;;;;;;5022085;28;20191;-71
2022/09/13 03:06:30;;;;;;;2.88;2.10;;;21.50;65.50;;;;;;5021335;28;20255;-70
2022/09/13 03:09:02;;;;;;;1.88;1.70;;;21.40;65.40;;;;;;5037791;28;20286;-70
2022/09/13 03:12:06;;;;;;;2.30;2.10;;;21.40;65.40;;;;;;5022061;28;20226;-70
2022/09/13 03:14:53;;;;;;;2.10;1.90;;;21.40;65.40;;;;;;5038204;28;20332;-70
2022/09/13 03:17:38;;;;;;;2.40;2.08;;;21.50;65.50;;;;;;5021878;28;20191;-71
2022/09/13 03:20:22;;;;;;;1.70;1.50;;;21.50;65.50;;;;;;5037680;28;20218;-70
2022/09/13 03:23:18;;;;;;;1.95;1.85;;;21.40;65.40;;;;;;5022492;28;20211;-70
2022/09/13 03:26:01;;;;;;;2.08;1.88;;;21.50;65.50;;;;;;5021368;28;20222;-70
2022/09/13 03:28:58;;;;;;;1.70;1.60;;;21.50;65.50;;;;;;5022307;28;20191;-70
2022/09/13 03:32:04;;;;;;;2.05;1.85;;;21.40;66.20;;;;;;5021960;28;20211;-70
2022/09/13 03:35:15;;;;;;;1.95;1.85;;;21.40;65.40;;;;;;5037976;28;20198;-70
2022/09/13 03:38:00;;;;;;;2.08;1.88;;;21.50;65.50;;;;;;5012293;28;20203;-70
2022/09/13 03:40:32;;;;;;;1.77;1.67;;;21.40;65.40;;;;;;5037633;28;20222;-70
2022/09/13 03:43:03;;;;;;;1.63;1.52;;;21.40;65.40;;;;;;5021853;28;20187;-70
2022/09/13 03:45:38;;;;;;;2.22;1.80;;;21.40;65.40;;;;;;5021551;28;20191;-70
2022/09/13 03:48:06;;;;;;;2.13;1.80;;;21.40;65.40;;;;;;5021607;28;20183;-70
2022/09/13 03:50:34;;;;;;;1.98;1.80;;;21.40;65.40;;;;;;5037032;28;20239;-70
2022/09/13 03:53:07;;;;;;;1.73;1.63;;;21.40;65.40;;;;;;5037372;28;20214;-70
2022/09/13 03:55:39;;;;;;;2.47;1.90;;;21.40;65.40;;;;;;5021443;28;20270;-69
2022/09/13 03:58:05;;;;;;;1.80;1.70;;;21.40;65.40;;;;;;5018083;28;20566;-70
2022/09/13 04:00:31;;;;;;;1.48;1.38;;;21.40;65.40;;;;;;5034751;28;20215;-70
2022/09/13 04:02:57;;;;;;;2.40;2.20;;;21.40;65.40;;;;;;5021781;28;20275;-70
2022/09/13 04:05:22;;;;;;;1.75;1.65;;;21.40;65.40;;;;;;5036637;28;20187;-70
2022/09/13 04:07:48;;;;;;;2.15;1.95;;;21.40;65.40;;;;;;5026200;28;20270;-70
2022/09/13 04:10:14;;;;;;;1.60;1.50;;;21.40;65.30;;;;;;5043622;28;20191;-70
2022/09/13 04:12:40;;;;;;;1.98;1.88;;;21.40;65.40;;;;;;5041899;28;20195;-70
2022/09/13 04:15:07;;;;;;;1.65;1.55;;;21.40;65.40;;;;;;5040754;28;20195;-70
2022/09/13 04:17:33;;;;;;;1.77;1.67;;;21.40;66.10;;;;;;5040638;28;20195;-70
2022/09/13 04:19:59;;;;;;;1.70;1.60;;;21.40;65.30;;;;;;5039174;28;20215;-70
2022/09/13 04:22:25;;;;;;;2.10;1.70;;;21.40;65.40;;;;;;5024518;28;20183;-70
2022/09/13 04:24:51;;;;;;;1.80;1.70;;;21.40;65.30;;;;;;5039491;28;20218;-69
2022/09/13 04:27:17;;;;;;;1.67;1.58;;;21.40;65.30;;;;;;5039962;28;20223;-71
2022/09/13 04:29:43;;;;;;;1.52;1.42;;;21.40;65.40;;;;;;5040090;28;20194;-70
2022/09/13 04:32:09;;;;;;;1.60;1.50;;;21.40;65.40;;;;;;5040303;28;20278;-69
2022/09/13 04:34:36;;;;;;;1.40;1.30;;;21.40;65.40;;;;;;5023007;28;20196;-70
2022/09/13 04:37:01;;;;;;;1.48;1.30;;;21.40;65.40;;;;;;5015467;28;20211;-70
2022/09/13 04:39:27;;;;;;;1.90;1.80;;;21.40;65.40;;;;;;5039657;28;20607;-70
2022/09/13 04:41:54;;;;;;;1.75;1.65;;;21.40;65.40;;;;;;5023131;28;20214;-70
2022/09/13 04:44:20;;;;;;;1.70;1.60;;;21.40;65.40;;;;;;5040383;28;20194;-71
2022/09/13 04:46:47;;;;;;;1.60;1.50;;;21.40;65.40;;;;;;5023340;28;20179;-70
2022/09/13 04:49:15;;;;;;;1.48;1.38;;;21.40;65.40;;;;;;5023381;28;20192;-70
2022/09/13 04:51:41;;;;;;;1.30;1.20;;;21.40;65.40;;;;;;5023294;28;20203;-70
2022/09/13 04:54:10;;;;;;;1.85;1.75;;;21.40;65.30;;;;;;5039384;28;20218;-70
2022/09/13 04:56:36;;;;;;;1.63;1.52;;;21.40;65.40;;;;;;5022834;28;20188;-69
2022/09/13 04:59:01;;;;;;;1.55;1.45;;;21.40;65.40;;;;;;5023363;28;20179;-69
2022/09/13 05:01:28;;;;;;;1.63;1.52;;;21.40;65.40;;;;;;5040231;28;20789;-70
2022/09/13 05:03:54;;;;;;;1.60;1.50;;;21.40;65.40;;;;;;5023497;28;20689;-72
2022/09/13 05:06:21;;;;;;;1.70;1.60;;;21.30;65.30;;;;;;5021171;28;20274;-71
2022/09/13 05:08:54;;;;;;;1.95;1.70;;;21.30;65.30;;;;;;5022779;28;20639;-71
2022/09/13 05:11:25;;;;;;;1.50;1.40;;;21.30;65.30;;;;;;5022399;28;20203;-70
2022/09/13 05:13:54;;;;;;;1.65;1.55;;;21.30;65.30;;;;;;5038811;28;20222;-71
2022/09/13 05:16:23;;;;;;;1.52;1.48;;;21.40;65.40;;;;;;5021390;28;20195;-71
2022/09/13 05:18:50;;;;;;;1.60;1.50;;;21.40;65.40;;;;;;5020724;28;20231;-71
2022/09/13 05:21:17;;;;;;;1.95;1.80;;;21.40;65.40;;;;;;5020635;28;20225;-71
2022/09/13 05:23:44;;;;;;;1.75;1.60;;;21.40;66.20;;;;;;5021145;28;20274;-72
2022/09/13 05:26:10;;;;;;;1.75;1.65;;;21.40;65.40;;;;;;5020798;28;20221;-71
2022/09/13 05:28:36;;;;;;;2.00;1.80;;;21.40;65.40;;;;;;5019591;28;20175;-71
2022/09/13 05:31:06;;;;;;;2.00;1.90;;;21.40;65.40;;;;;;5020150;28;20233;-71
2022/09/13 05:33:36;;;;;;;1.85;1.75;;;21.30;65.30;;;;;;5020115;28;20195;-72
2022/09/13 05:36:05;;;;;;;2.63;1.90;;;21.40;65.40;;;;;;5013020;28;20184;-72
2022/09/13 05:38:31;;;;;;;1.70;1.60;;;21.30;65.30;;;;;;5037242;28;20785;-70
2022/09/13 05:41:01;;;;;;;2.22;2.03;;;21.40;65.40;;;;;;5020570;28;20246;-71
2022/09/13 05:43:34;;;;;;;1.90;1.80;;;21.40;65.50;;;;;;5022271;28;20187;-70
2022/09/13 05:46:11;;;;;;;2.38;1.70;;;21.30;65.30;;;;;;5021348;28;20235;-70
2022/09/13 05:48:38;;;;;;;1.77;1.67;;;21.30;65.30;;;;;;5053222;28;20567;-71
2022/09/13 05:52:27;;;;;;;2.00;1.90;;;21.30;65.40;;;;;;5037386;28;20207;-71
2022/09/13 05:54:53;;;;;;;1.83;1.73;;;21.30;65.40;;;;;;5016543;28;20218;-71
2022/09/13 05:57:19;;;;;;;1.90;1.80;;;21.40;65.60;;;;;;5037693;28;20209;-70
2022/09/13 05:59:46;;;;;;;2.42;2.20;;;21.40;65.50;;;;;;5028560;28;20207;-70
2022/09/13 06:02:12;;;;;;;1.80;1.70;;;21.40;65.40;;;;;;5021347;28;20215;-70
2022/09/13 06:04:38;;;;;;;1.70;1.60;;;21.40;65.50;;;;;;5017406;28;20215;-71
2022/09/13 06:07:03;;;;;;;2.00;1.80;;;21.30;65.30;;;;;;5020344;28;20183;-70
2022/09/13 06:09:29;;;;;;;2.03;1.88;;;21.40;65.50;;;;;;5021623;28;20194;-71
2022/09/13 06:11:55;;;;;;;1.60;1.50;;;21.30;65.40;;;;;;5021271;28;20203;-70
2022/09/13 06:14:21;;;;;;;1.88;1.77;;;21.30;65.40;;;;;;5020360;28;20187;-70
2022/09/13 06:16:46;;;;;;;2.13;1.70;;;21.40;65.50;;;;;;5036970;28;20655;-70
2022/09/13 06:19:12;;;;;;;2.08;1.90;;;21.40;65.50;;;;;;5019873;28;20203;-70
2022/09/13 06:21:38;;;;;;;2.47;1.65;;;21.40;65.50;;;;;;5017384;28;20211;-70
2022/09/13 06:24:04;;;;;;;1.67;1.58;;;21.40;65.60;;;;;;5017837;28;20184;-71
2022/09/13 06:26:30;;;;;;;2.38;2.17;;;21.40;65.60;;;;;;5016770;28;20192;-71
2022/09/13 06:28:58;;;;;;;2.00;1.90;;;21.40;65.60;;;;;;5017633;28;20184;-70
2022/09/13 06:31:27;;;;;;;1.90;1.80;;;21.40;65.60;;;;;;5017599;28;20227;-70
2022/09/13 06:34:01;;;;;;;2.03;1.80;;;21.30;65.50;;;;;;5016758;28;20210;-71
2022/09/13 06:36:27;;;;;;;2.00;1.80;;;21.40;65.60;;;;;;5015428;28;20191;-70
2022/09/13 06:38:53;;;;;;;2.20;2.00;;;21.40;65.60;;;;;;5020611;28;20278;-71
2022/09/13 06:41:22;;;;;;;2.20;2.00;;;21.40;65.70;;;;;;5020476;28;20690;-71
2022/09/13 06:43:57;;;;;;;1.65;1.55;;;21.40;65.70;;;;;;5020632;28;20241;-70
2022/09/13 06:46:25;;;;;;;2.72;1.67;;;21.40;65.70;;;;;;5020560;28;20194;-71
2022/09/13 06:48:51;;;;;;;1.90;1.75;;;21.40;65.70;;;;;;5036573;28;20194;-70
2022/09/13 06:51:23;;;;;;;2.22;2.03;;;21.40;65.80;;;;;;5019679;28;20211;-71
2022/09/13 06:53:51;;;;;;;1.80;1.70;;;21.40;65.80;;;;;;5037422;28;20187;-70
2022/09/13 06:56:26;;;;;;;1.63;1.52;;;21.40;65.80;;;;;;5020753;28;20218;-70
2022/09/13 06:59:01;;;;;;;2.00;1.90;;;21.40;65.80;;;;;;5020150;28;20226;-71
2022/09/13 07:01:37;;;;;;;2.20;1.65;;;21.40;66.10;;;;;;5020155;28;20229;-70
2022/09/13 07:04:10;;;;;;;2.20;2.00;;;21.40;65.80;;;;;;5018782;28;20197;-71
2022/09/13 07:06:39;;;;;;;1.80;1.70;;;21.40;65.80;;;;;;5019940;28;20179;-71
2022/09/13 07:09:10;;;;;;;1.80;1.70;;;21.40;65.80;;;;;;5036833;28;20184;-71
2022/09/13 07:11:40;;;;;;;1.70;1.60;;;21.50;65.90;;;;;;5020267;28;20207;-71
2022/09/13 07:14:06;;;;;;;2.60;1.98;;;21.50;66.00;;;;;;5019965;28;20270;-70
2022/09/13 07:16:36;;;;;;;2.03;1.90;;;21.40;65.90;;;;;;5036290;28;20198;-71
2022/09/13 07:19:25;;;;;;;1.77;1.67;;;21.50;66.10;;;;;;5035918;28;20229;-71
2022/09/13 07:21:52;;;;;;;2.10;1.77;;;21.50;66.00;;;;;;5020237;28;20221;-71
2022/09/13 07:24:20;;;;;;;1.98;1.77;;;21.50;66.00;;;;;;5019859;28;20187;-70
2022/09/13 07:26:47;;;;;;;1.70;1.60;;;21.50;66.20;;;;;;5019780;28;20209;-71
2022/09/13 07:29:22;;;;;;;2.50;1.85;;;21.50;66.10;;;;;;5019784;28;20183;-71
2022/09/13 07:31:51;;;;;;;1.80;1.70;;;21.50;66.20;;;;;;5020188;28;20237;-71
2022/09/13 07:34:20;;;;;;;2.03;1.80;;;21.50;66.20;;;;;;5019627;28;20198;-71
2022/09/13 07:36:47;;;;;;;1.77;1.60;;;21.50;66.30;;;;;;5023539;28;20213;-71
2022/09/13 07:39:14;;;;;;;2.60;1.70;;;21.60;66.40;;;;;;5040830;28;20283;-71
2022/09/13 07:41:40;;;;;;;2.00;1.70;;;21.60;66.20;;;;;;5024391;28;20199;-71
2022/09/13 07:44:09;;;;;;;2.20;1.55;;;21.60;66.30;;;;;;5024163;28;20219;-70
2022/09/13 07:46:38;;;;;;;2.13;1.75;;;21.60;66.20;;;;;;5023967;28;20193;-71
2022/09/13 07:49:05;;;;;;;1.58;1.48;;;21.70;66.20;;;;;;5023520;28;20598;-71
2022/09/13 07:51:35;;;;;;;1.85;1.67;;;21.70;66.10;;;;;;5023328;28;20203;-71
2022/09/13 07:54:04;;;;;;;1.80;1.52;;;21.70;66.40;;;;;;5024164;28;20207;-71
2022/09/13 07:56:36;;;;;;;2.40;1.75;;;21.80;66.30;;;;;;5041084;28;20187;-70
2022/09/13 07:59:06;;;;;;;2.05;1.60;;;21.80;66.20;;;;;;5024223;28;20187;-70
2022/09/13 08:01:48;;;;;;;1.80;1.38;;;21.80;66.10;;;;;;5024120;28;20230;-70
2022/09/13 08:04:20;;;;;;;1.63;1.40;;;21.90;66.10;;;;;;5020665;28;20180;-72
2022/09/13 08:06:46;;;;;;;1.77;1.67;;;21.90;66.20;;;;;;5023224;28;20187;-70
2022/09/13 08:09:13;;;;;;;1.50;1.40;;;21.90;66.10;;;;;;5022343;28;20195;-71
2022/09/13 08:11:51;;;;;;;1.83;1.60;;;21.90;66.40;;;;;;5020073;28;20582;-71
2022/09/13 08:14:21;;;;;;;1.60;1.40;;;21.90;66.20;;;;;;5003961;28;20184;-70
2022/09/13 08:16:47;;;;;;;1.60;1.50;;;21.90;66.30;;;;;;5004146;28;20184;-71
2022/09/13 08:19:17;;;;;;;1.45;1.35;;;21.90;66.30;;;;;;5003270;28;20290;-70
2022/09/13 08:21:44;;;;;;;2.35;1.35;;;21.90;66.20;;;;;;5004026;28;20425;-71
2022/09/13 08:24:20;;;;;;;2.47;1.50;;;21.90;66.30;;;;;;5004917;28;20184;-71
2022/09/13 08:26:47;;;;;;;1.90;1.63;;;22.00;66.40;;;;;;5007634;28;20229;-70
2022/09/13 08:29:14;;;;;;;2.42;1.58;;;21.90;66.30;;;;;;5036825;28;20182;-70
2022/09/13 08:31:40;;;;;;;1.55;1.30;;;21.90;66.30;;;;;;5052915;28;20200;-71
2022/09/13 08:34:13;;;;;;;2.58;1.30;;;22.00;66.40;;;;;;5038206;28;20190;-71
2022/09/13 08:36:40;;;;;;;1.50;1.40;;;22.00;66.50;;;;;;5022362;28;20187;-70
2022/09/13 08:39:07;;;;;;;2.15;1.70;;;22.00;66.50;;;;;;5022953;28;20183;-70
2022/09/13 08:41:51;;;;;;;1.60;1.50;;;22.00;66.60;;;;;;5023257;28;20253;-70
2022/09/13 08:44:46;;;;;;;1.50;1.40;;;22.00;66.60;;;;;;5039476;28;20183;-71
2022/09/13 08:47:20;;;;;;;1.67;1.58;;;22.00;66.60;;;;;;5039782;28;20193;-70
2022/09/13 08:49:58;;;;;;;2.08;1.25;;;22.00;66.50;;;;;;5020890;28;20708;-71
2022/09/13 08:52:35;;;;;;;1.42;1.30;;;22.00;66.80;;;;;;5023994;28;20187;-71
2022/09/13 08:55:18;;;;;;;1.40;1.30;;;22.00;66.60;;;;;;5022966;28;20638;-70
2022/09/13 08:58:05;;;;;;;1.40;1.30;;;22.00;66.70;;;;;;5039545;28;20570;-70
2022/09/13 09:00:48;;;;;;;1.75;1.33;;;22.00;66.60;;;;;;5022484;28;20686;-71
2022/09/13 09:03:45;;;;;;;1.40;1.30;;;22.00;66.70;;;;;;5039014;28;20187;-71
2022/09/13 09:06:15;;;;;;;1.50;1.40;;;22.00;66.70;;;;;;5015330;28;20191;-71
2022/09/13 09:08:50;;;;;;;1.40;1.30;;;21.90;66.60;;;;;;5038554;28;20216;-71
2022/09/13 09:11:40;;;;;;;1.48;1.38;;;22.00;66.70;;;;;;5022142;28;20234;-71
2022/09/13 09:14:28;;;;;;;1.45;1.20;;;21.90;66.70;;;;;;5039197;28;20190;-71
2022/09/13 09:17:05;;;;;;;1.63;1.20;;;22.00;66.90;;;;;;5038813;28;20574;-70
2022/09/13 09:19:43;;;;;;;1.40;1.30;;;21.90;66.80;;;;;;5021935;28;20206;-71
2022/09/13 09:22:20;;;;;;;1.25;1.15;;;22.00;66.90;;;;;;5022708;28;20207;-71
2022/09/13 09:24:57;;;;;;;1.40;1.30;;;22.00;67.00;;;;;;5021924;28;20193;-70
2022/09/13 09:27:23;;;;;;;1.35;1.20;;;22.00;67.00;;;;;;5021422;28;20263;-71
2022/09/13 09:29:53;;;;;;;1.30;1.17;;;22.00;67.00;;;;;;5038160;28;20635;-71
2022/09/13 09:32:35;;;;;;;1.10;1.10;;;22.00;67.10;;;;;;5037735;28;20231;-70
2022/09/13 09:35:35;;;;;;;1.40;1.20;;;22.00;67.10;;;;;;5037464;28;20195;-71
2022/09/13 09:38:35;;;;;;;1.33;1.23;;;22.00;67.30;;;;;;5018229;28;20589;-70
2022/09/13 09:41:12;;;;;;;1.20;1.10;;;22.00;67.40;;;;;;5051342;28;20322;-71
2022/09/13 09:43:51;;;;;;;1.58;1.40;;;22.00;67.10;;;;;;5018638;28;20183;-71
2022/09/13 09:46:25;;;;;;;2.97;1.25;;;22.00;67.40;;;;;;5052049;28;20169;-71
2022/09/13 09:49:00;;;;;;;1.10;1.00;;;22.00;67.30;;;;;;5017769;28;20183;-71
2022/09/13 09:51:29;;;;;;;1.20;1.10;;;22.00;67.50;;;;;;5018090;28;20222;-71
2022/09/13 09:54:04;;;;;;;1.40;1.30;;;22.00;67.60;;;;;;5034257;28;20192;-71
2022/09/13 09:56:33;;;;;;;1.23;1.00;;;22.00;67.70;;;;;;5051623;28;20188;-71
2022/09/13 09:58:59;;;;;;;1.30;1.20;;;22.00;67.80;;;;;;5050897;28;20212;-71
2022/09/13 10:01:32;;;;;;;1.20;1.10;;;22.00;67.90;;;;;;5033834;28;20220;-71
2022/09/13 10:04:07;;;;;;;1.10;1.00;;;22.00;67.80;;;;;;5020581;28;20202;-72
2022/09/13 10:06:37;;;;;;;1.13;1.05;;;22.00;67.50;;;;;;5017777;28;20209;-71
2022/09/13 10:09:12;;;;;;;1.35;1.25;;;22.00;67.60;;;;;;5033217;28;20225;-71
2022/09/13 10:11:47;;;;;;;1.08;0.98;;;22.00;67.70;;;;;;5029535;28;20215;-71
2022/09/13 10:14:40;;;;;;;1.35;1.20;;;22.00;67.30;;;;;;5017427;28;20752;-72
2022/09/13 10:17:28;;;;;;;0.85;0.82;;;22.00;67.00;;;;;;5051435;28;20183;-72
2022/09/13 10:20:00;;;;;;;1.25;1.00;;;22.00;67.20;;;;;;5001686;28;20216;-72
2022/09/13 10:22:28;;;;;;;1.80;1.42;;;22.00;67.30;;;;;;5035271;28;20175;-71
2022/09/13 10:24:54;;;;;;;1.75;1.30;;;22.00;67.30;;;;;;5028746;28;20188;-72
2022/09/13 10:27:38;;;;;;;1.20;1.10;;;22.00;67.60;;;;;;5022427;28;20175;-71
2022/09/13 10:30:31;;;;;;;1.10;1.10;;;22.00;67.60;;;;;;5020734;28;20237;-71
2022/09/13 10:32:58;;;;;;;1.35;1.25;;;22.00;67.40;;;;;;5024047;28;20274;-71
2022/09/13 10:35:24;;;;;;;1.30;1.20;;;22.00;67.00;;;;;;5028133;28;20245;-71
2022/09/13 10:37:51;;;;;;;1.45;0.80;;;22.00;67.00;;;;;;5036542;28;20202;-71
2022/09/13 10:40:28;;;;;;;1.20;1.10;;;22.00;67.00;;;;;;5020639;28;20246;-71
2022/09/13 10:42:58;;;;;;;1.15;1.05;;;22.10;67.00;;;;;;5020728;28;20270;-71
2022/09/13 10:45:30;;;;;;;1.27;0.90;;;22.10;67.00;;;;;;5024592;28;20274;-71
2022/09/13 10:48:15;;;;;;;1.00;0.90;;;22.10;66.80;;;;;;5037230;28;20215;-71
2022/09/13 10:51:28;;;;;;;1.80;1.00;;;22.10;67.20;;;;;;5020818;28;20207;-72
2022/09/13 10:54:10;;;;;;;1.15;1.10;;;22.10;67.20;;;;;;5018063;28;20209;-71
2022/09/13 10:56:37;;;;;;;1.13;0.93;;;22.10;67.10;;;;;;5020260;28;20198;-71
2022/09/13 10:59:35;;;;;;;1.35;0.90;;;22.10;67.20;;;;;;5019814;28;20179;-71
2022/09/13 11:02:54;;;;;;;1.10;1.00;;;22.00;67.00;;;;;;5008600;28;20219;-71
2022/09/13 11:06:08;;;;;;;1.77;1.10;;;22.00;67.00;;;;;;5036665;28;20183;-71
2022/09/13 11:08:55;;;;;;;1.00;0.80;;;22.10;66.90;;;;;;5020298;28;20602;-72
2022/09/13 11:11:47;;;;;;;1.27;0.80;;;22.10;66.80;;;;;;5034471;28;20265;-71
2022/09/13 11:14:47;;;;;;;1.10;0.80;;;22.10;67.00;;;;;;5015671;28;20211;-71
2022/09/13 11:17:48;;;;;;;1.77;1.23;;;22.10;67.00;;;;;;5015521;28;20192;-70
2022/09/13 11:20:44;;;;;;;0.70;0.70;;;22.10;66.50;;;;;;5029894;28;20211;-71
2022/09/13 11:23:28;;;;;;;1.67;0.95;;;22.10;66.70;;;;;;5019322;28;20237;-71
2022/09/13 11:26:20;;;;;;;1.35;0.80;;;22.10;66.90;;;;;;5033635;28;20210;-71
2022/09/13 11:29:30;;;;;;;1.10;1.00;;;22.10;67.10;;;;;;5030162;28;20191;-71
2022/09/13 11:32:28;;;;;;;1.52;0.93;;;22.10;67.50;;;;;;5019148;28;20222;-72
2022/09/13 11:35:33;;;;;;;0.82;0.82;;;22.10;66.70;;;;;;5019056;28;20266;-72
2022/09/13 11:38:45;;;;;;;1.25;0.80;;;22.10;66.90;;;;;;5019564;28;20175;-72
2022/09/13 11:41:42;;;;;;;0.80;0.80;;;22.10;66.70;;;;;;5035376;28;20222;-72
2022/09/13 11:44:44;;;;;;;0.80;0.80;;;22.10;66.90;;;;;;5036410;28;20669;-72
2022/09/13 11:47:40;;;;;;;1.48;1.00;;;22.10;67.10;;;;;;5019760;28;20175;-71
2022/09/13 11:50:38;;;;;;;1.85;1.13;;;22.10;66.80;;;;;;5035608;28;20187;-71
2022/09/13 11:53:26;;;;;;;0.82;0.68;;;22.10;66.90;;;;;;5035160;28;20213;-71
2022/09/13 11:56:01;;;;;;;1.58;0.93;;;22.10;67.00;;;;;;5035963;28;20182;-71
2022/09/13 11:58:47;;;;;;;1.48;1.00;;;22.10;66.90;;;;;;5020598;28;20175;-72
2022/09/13 12:01:24;;;;;;;0.90;0.82;;;22.10;67.10;;;;;;5018583;28;20219;-70
2022/09/13 12:04:16;;;;;;;0.93;0.90;;;22.10;67.00;;;;;;5021075;28;20233;-72
2022/09/13 12:06:58;;;;;;;1.15;0.80;;;22.10;66.90;;;;;;5016971;28;20188;-71
2022/09/13 12:09:39;;;;;;;0.75;0.70;;;22.10;66.90;;;;;;5036898;28;20179;-71
2022/09/13 12:12:13;;;;;;;0.93;0.93;;;22.10;66.90;;;;;;5020290;28;20270;-71
2022/09/13 12:14:57;;;;;;;1.05;0.80;;;22.10;66.90;;;;;;5011665;28;20188;-71
2022/09/13 12:17:39;;;;;;;0.90;0.82;;;22.10;66.80;;;;;;5019278;28;20639;-71
2022/09/13 12:20:29;;;;;;;0.70;0.70;;;22.10;66.80;;;;;;5018739;28;20210;-71
2022/09/13 12:22:59;;;;;;;1.23;0.98;;;22.20;66.80;;;;;;5021412;28;20243;-71
2022/09/13 12:25:41;;;;;;;0.73;0.73;;;22.10;66.50;;;;;;5041011;28;20203;-71
2022/09/13 12:28:26;;;;;;;1.25;0.80;;;22.20;66.70;;;;;;5024934;28;20175;-72
2022/09/13 12:31:03;;;;;;;0.90;0.90;;;22.20;66.70;;;;;;5024656;28;20217;-72
2022/09/13 12:33:29;;;;;;;1.58;0.90;;;22.20;66.70;;;;;;5026695;28;20179;-72
2022/09/13 12:36:39;;;;;;;1.20;0.80;;;22.20;66.90;;;;;;5042807;28;20630;-72
2022/09/13 12:39:20;;;;;;;0.80;0.80;;;22.20;66.70;;;;;;5019014;28;20214;-72
2022/09/13 12:42:23;;;;;;;1.08;0.90;;;22.20;66.80;;;;;;5003640;28;20593;-72
2022/09/13 12:45:17;;;;;;;1.10;0.90;;;22.20;66.60;;;;;;5003915;28;20271;-71
2022/09/13 12:48:32;;;;;;;0.80;0.80;;;22.20;66.80;;;;;;5003780;28;20188;-72
2022/09/13 12:51:33;;;;;;;1.50;0.80;;;22.20;66.60;;;;;;5020904;28;20326;-71
2022/09/13 12:54:20;;;;;;;1.05;1.00;;;22.20;66.70;;;;;;5020561;28;20282;-72
2022/09/13 12:57:11;;;;;;;0.88;0.82;;;22.20;66.70;;;;;;5003314;28;20198;-71
2022/09/13 13:00:25;;;;;;;1.08;1.05;;;22.20;66.80;;;;;;5020580;28;20176;-71
2022/09/13 13:03:00;;;;;;;1.13;0.82;;;22.20;66.60;;;;;;5012512;28;20195;-72
2022/09/13 13:05:25;;;;;;;1.10;0.80;;;22.20;66.50;;;;;;5039281;28;20187;-71
2022/09/13 13:08:20;;;;;;;1.80;0.90;;;22.20;66.70;;;;;;5039537;28;20197;-71
2022/09/13 13:11:09;;;;;;;0.80;0.80;;;22.30;66.80;;;;;;5022168;28;20203;-71
2022/09/13 13:13:38;;;;;;;0.70;0.70;;;22.20;66.70;;;;;;5022507;28;20209;-71
2022/09/13 13:16:21;;;;;;;0.90;0.80;;;22.30;67.00;;;;;;5039696;28;20195;-71
2022/09/13 13:18:51;;;;;;;1.02;0.90;;;22.30;67.00;;;;;;5023765;28;20191;-71
2022/09/13 13:21:43;;;;;;;0.75;0.70;;;22.20;66.90;;;;;;5022673;28;20219;-72
2022/09/13 13:24:32;;;;;;;1.00;0.90;;;22.20;66.90;;;;;;5020837;28;20203;-71
2022/09/13 13:26:58;;;;;;;0.80;0.80;;;22.30;67.00;;;;;;5020257;28;20195;-72
2022/09/13 13:29:29;;;;;;;0.60;0.60;;;22.30;67.00;;;;;;5039771;28;20179;-72
2022/09/13 13:32:06;;;;;;;0.80;0.80;;;22.30;67.00;;;;;;5022521;28;20210;-72
2022/09/13 13:34:46;;;;;;;1.25;0.93;;;22.20;67.20;;;;;;5021396;28;20194;-71
2022/09/13 13:37:17;;;;;;;0.75;0.70;;;22.20;67.10;;;;;;5006865;28;20179;-71
2022/09/13 13:39:45;;;;;;;0.80;0.80;;;22.30;67.00;;;;;;5002458;28;20203;-72